sensor_id;sensor_type;location;lat;lon;timestamp;P1;durP1;ratioP1;P2;durP2;ratioP2
11042;SDS011;5574;48.786;10.120;2022-08-04T00:01:06;2.38;;;2.08;;
11042;SDS011;5574;48.786;10.120;2022-08-04T00:03:38;4.75;;;2.03;;
11042;SDS011;5574;48.786;10.120;2022-08-04T00:06:10;3.88;;;2.50;;
11042;SDS011;5574;48.786;10.120;2022-08-04T00:08:43;2.35;;;1.92;;
11042;SDS011;5574;48.786;10.120;2022-08-04T00:11:14;2.17;;;1.90;;
11042;SDS011;5574;48.786;10.120;2022-08-04T00:13:48;4.10;;;2.13;;
11042;SDS011;5574;48.786;10.120;2022-08-04T00:16:18;3.42;;;1.75;;
11042;SDS011;5574;48.786;10.120;2022-08-04T00:18:49;2.95;;;1.90;;
11042;SDS011;5574;48.786;10.120;2022-08-04T00:21:20;1.95;;;1.70;;
11042;SDS011;5574;48.786;10.120;2022-08-04T00:23:50;2.13;;;1.92;;
11042;SDS011;5574;48.786;10.120;2022-08-04T00:26:20;2.17;;;1.90;;
11042;SDS011;5574;48.786;10.120;2022-08-04T00:28:47;2.45;;;2.25;;
11042;SDS011;5574;48.786;10.120;2022-08-04T00:31:14;2.47;;;2.00;;
11042;SDS011;5574;48.786;10.120;2022-08-04T00:33:42;3.85;;;1.95;;
11042;SDS011;5574;48.786;10.120;2022-08-04T00:36:10;3.75;;;2.28;;
11042;SDS011;5574;48.786;10.120;2022-08-04T00:38:39;4.63;;;2.50;;
11042;SDS011;5574;48.786;10.120;2022-08-04T00:41:08;4.40;;;2.75;;
11042;SDS011;5574;48.786;10.120;2022-08-04T00:43:51;5.70;;;2.50;;
11042;SDS011;5574;48.786;10.120;2022-08-04T00:46:39;2.60;;;2.05;;
11042;SDS011;5574;48.786;10.120;2022-08-04T00:49:24;2.28;;;2.00;;
11042;SDS011;5574;48.786;10.120;2022-08-04T00:52:05;2.60;;;2.00;;
11042;SDS011;5574;48.786;10.120;2022-08-04T00:54:46;2.85;;;2.10;;
11042;SDS011;5574;48.786;10.120;2022-08-04T00:57:29;3.20;;;2.20;;
11042;SDS011;5574;48.786;10.120;2022-08-04T01:00:07;2.22;;;2.00;;
11042;SDS011;5574;48.786;10.120;2022-08-04T01:02:36;2.33;;;2.13;;
11042;SDS011;5574;48.786;10.120;2022-08-04T01:05:14;2.28;;;2.08;;
11042;SDS011;5574;48.786;10.120;2022-08-04T01:08:02;3.42;;;1.90;;
11042;SDS011;5574;48.786;10.120;2022-08-04T01:10:45;2.90;;;2.17;;
11042;SDS011;5574;48.786;10.120;2022-08-04T01:13:28;3.45;;;2.13;;
11042;SDS011;5574;48.786;10.120;2022-08-04T01:16:13;2.20;;;1.95;;
11042;SDS011;5574;48.786;10.120;2022-08-04T01:18:44;4.10;;;2.20;;
11042;SDS011;5574;48.786;10.120;2022-08-04T01:21:21;2.35;;;2.05;;
11042;SDS011;5574;48.786;10.120;2022-08-04T01:27:25;2.38;;;2.17;;
11042;SDS011;5574;48.786;10.120;2022-08-04T01:30:00;1.98;;;1.88;;
11042;SDS011;5574;48.786;10.120;2022-08-04T01:32:30;2.45;;;2.10;;
11042;SDS011;5574;48.786;10.120;2022-08-04T01:35:00;2.20;;;2.00;;
11042;SDS011;5574;48.786;10.120;2022-08-04T01:37:44;2.10;;;1.90;;
11042;SDS011;5574;48.786;10.120;2022-08-04T01:40:14;3.38;;;2.13;;
11042;SDS011;5574;48.786;10.120;2022-08-04T01:42:42;3.00;;;2.40;;
11042;SDS011;5574;48.786;10.120;2022-08-04T01:45:12;2.38;;;2.17;;
11042;SDS011;5574;48.786;10.120;2022-08-04T01:47:40;2.42;;;2.00;;
11042;SDS011;5574;48.786;10.120;2022-08-04T01:50:09;2.78;;;2.15;;
11042;SDS011;5574;48.786;10.120;2022-08-04T01:52:38;4.05;;;1.92;;
11042;SDS011;5574;48.786;10.120;2022-08-04T01:55:06;3.08;;;2.08;;
11042;SDS011;5574;48.786;10.120;2022-08-04T01:57:34;2.22;;;2.03;;
11042;SDS011;5574;48.786;10.120;2022-08-04T02:00:03;3.50;;;2.10;;
11042;SDS011;5574;48.786;10.120;2022-08-04T02:02:32;3.10;;;1.98;;
11042;SDS011;5574;48.786;10.120;2022-08-04T02:04:59;1.95;;;1.85;;
11042;SDS011;5574;48.786;10.120;2022-08-04T02:07:29;2.13;;;1.85;;
11042;SDS011;5574;48.786;10.120;2022-08-04T02:10:03;3.50;;;2.20;;
11042;SDS011;5574;48.786;10.120;2022-08-04T02:12:38;2.58;;;2.17;;
11042;SDS011;5574;48.786;10.120;2022-08-04T02:15:18;3.38;;;1.80;;
11042;SDS011;5574;48.786;10.120;2022-08-04T02:17:56;2.42;;;2.22;;
11042;SDS011;5574;48.786;10.120;2022-08-04T02:20:28;2.70;;;2.30;;
11042;SDS011;5574;48.786;10.120;2022-08-04T02:22:59;2.42;;;2.20;;
11042;SDS011;5574;48.786;10.120;2022-08-04T02:25:29;2.22;;;1.95;;
11042;SDS011;5574;48.786;10.120;2022-08-04T02:28:11;2.70;;;2.50;;
11042;SDS011;5574;48.786;10.120;2022-08-04T02:30:43;3.05;;;2.00;;
11042;SDS011;5574;48.786;10.120;2022-08-04T02:33:24;2.85;;;2.10;;
11042;SDS011;5574;48.786;10.120;2022-08-04T02:35:56;2.67;;;2.15;;
11042;SDS011;5574;48.786;10.120;2022-08-04T02:38:28;5.10;;;2.25;;
11042;SDS011;5574;48.786;10.120;2022-08-04T02:41:05;2.00;;;1.90;;
11042;SDS011;5574;48.786;10.120;2022-08-04T02:43:34;2.92;;;1.75;;
11042;SDS011;5574;48.786;10.120;2022-08-04T02:46:02;3.08;;;1.85;;
11042;SDS011;5574;48.786;10.120;2022-08-04T02:48:31;2.28;;;2.13;;
11042;SDS011;5574;48.786;10.120;2022-08-04T02:51:01;3.10;;;2.17;;
11042;SDS011;5574;48.786;10.120;2022-08-04T02:53:29;2.63;;;2.30;;
11042;SDS011;5574;48.786;10.120;2022-08-04T02:55:58;4.00;;;1.90;;
11042;SDS011;5574;48.786;10.120;2022-08-04T02:58:28;2.65;;;2.10;;
11042;SDS011;5574;48.786;10.120;2022-08-04T03:00:59;2.67;;;1.92;;
11042;SDS011;5574;48.786;10.120;2022-08-04T03:03:29;3.42;;;2.20;;
11042;SDS011;5574;48.786;10.120;2022-08-04T03:06:16;3.05;;;2.42;;
11042;SDS011;5574;48.786;10.120;2022-08-04T03:09:13;3.67;;;2.03;;
11042;SDS011;5574;48.786;10.120;2022-08-04T03:11:56;2.40;;;2.15;;
11042;SDS011;5574;48.786;10.120;2022-08-04T03:15:09;3.13;;;2.50;;
11042;SDS011;5574;48.786;10.120;2022-08-04T03:18:20;2.50;;;2.25;;
11042;SDS011;5574;48.786;10.120;2022-08-04T03:21:14;2.53;;;2.33;;
11042;SDS011;5574;48.786;10.120;2022-08-04T03:24:13;2.63;;;2.42;;
11042;SDS011;5574;48.786;10.120;2022-08-04T03:27:02;2.95;;;2.30;;
11042;SDS011;5574;48.786;10.120;2022-08-04T03:48:43;2.53;;;2.25;;
11042;SDS011;5574;48.786;10.120;2022-08-04T03:51:42;3.13;;;2.50;;
11042;SDS011;5574;48.786;10.120;2022-08-04T03:54:48;2.75;;;2.38;;
11042;SDS011;5574;48.786;10.120;2022-08-04T03:57:46;3.85;;;2.40;;
11042;SDS011;5574;48.786;10.120;2022-08-04T04:00:37;3.55;;;2.40;;
11042;SDS011;5574;48.786;10.120;2022-08-04T04:06:14;2.67;;;2.47;;
11042;SDS011;5574;48.786;10.120;2022-08-04T04:12:03;4.93;;;2.70;;
11042;SDS011;5574;48.786;10.120;2022-08-04T04:17:40;6.38;;;2.60;;
11042;SDS011;5574;48.786;10.120;2022-08-04T04:20:22;4.78;;;2.35;;
11042;SDS011;5574;48.786;10.120;2022-08-04T04:23:02;2.65;;;2.25;;
11042;SDS011;5574;48.786;10.120;2022-08-04T04:25:48;4.05;;;2.92;;
11042;SDS011;5574;48.786;10.120;2022-08-04T04:28:37;3.90;;;2.50;;
11042;SDS011;5574;48.786;10.120;2022-08-04T04:31:21;4.53;;;2.83;;
11042;SDS011;5574;48.786;10.120;2022-08-04T04:34:08;4.97;;;2.70;;
11042;SDS011;5574;48.786;10.120;2022-08-04T04:36:48;3.78;;;2.55;;
11042;SDS011;5574;48.786;10.120;2022-08-04T04:39:29;3.17;;;2.55;;
11042;SDS011;5574;48.786;10.120;2022-08-04T04:42:12;5.03;;;2.92;;
11042;SDS011;5574;48.786;10.120;2022-08-04T04:45:08;3.50;;;2.42;;
11042;SDS011;5574;48.786;10.120;2022-08-04T04:47:44;2.90;;;2.70;;
11042;SDS011;5574;48.786;10.120;2022-08-04T04:50:20;2.90;;;2.60;;
11042;SDS011;5574;48.786;10.120;2022-08-04T04:52:55;4.03;;;2.78;;
11042;SDS011;5574;48.786;10.120;2022-08-04T04:55:40;4.40;;;2.60;;
11042;SDS011;5574;48.786;10.120;2022-08-04T04:58:10;4.82;;;2.67;;
11042;SDS011;5574;48.786;10.120;2022-08-04T05:00:48;2.63;;;2.22;;
11042;SDS011;5574;48.786;10.120;2022-08-04T05:03:34;2.95;;;2.70;;
11042;SDS011;5574;48.786;10.120;2022-08-04T05:06:13;5.30;;;2.95;;
11042;SDS011;5574;48.786;10.120;2022-08-04T05:09:02;8.18;;;3.85;;
11042;SDS011;5574;48.786;10.120;2022-08-04T05:11:43;8.05;;;2.75;;
11042;SDS011;5574;48.786;10.120;2022-08-04T05:14:24;6.50;;;2.80;;
11042;SDS011;5574;48.786;10.120;2022-08-04T05:16:57;4.20;;;2.60;;
11042;SDS011;5574;48.786;10.120;2022-08-04T05:19:30;5.63;;;2.83;;
11042;SDS011;5574;48.786;10.120;2022-08-04T05:22:10;3.80;;;2.65;;
11042;SDS011;5574;48.786;10.120;2022-08-04T05:24:44;5.40;;;2.83;;
11042;SDS011;5574;48.786;10.120;2022-08-04T05:27:14;5.63;;;3.00;;
11042;SDS011;5574;48.786;10.120;2022-08-04T05:29:51;3.90;;;2.58;;
11042;SDS011;5574;48.786;10.120;2022-08-04T05:32:25;7.50;;;2.80;;
11042;SDS011;5574;48.786;10.120;2022-08-04T05:34:56;8.13;;;2.65;;
11042;SDS011;5574;48.786;10.120;2022-08-04T05:37:27;5.32;;;2.78;;
11042;SDS011;5574;48.786;10.120;2022-08-04T05:39:57;18.13;;;4.45;;
11042;SDS011;5574;48.786;10.120;2022-08-04T05:42:28;7.90;;;2.90;;
11042;SDS011;5574;48.786;10.120;2022-08-04T05:44:56;3.83;;;2.70;;
11042;SDS011;5574;48.786;10.120;2022-08-04T05:47:25;4.22;;;2.65;;
11042;SDS011;5574;48.786;10.120;2022-08-04T05:49:54;4.88;;;2.70;;
11042;SDS011;5574;48.786;10.120;2022-08-04T05:52:22;4.18;;;2.90;;
11042;SDS011;5574;48.786;10.120;2022-08-04T05:54:50;4.50;;;2.72;;
11042;SDS011;5574;48.786;10.120;2022-08-04T05:57:17;4.25;;;2.80;;
11042;SDS011;5574;48.786;10.120;2022-08-04T05:59:45;7.38;;;3.05;;
11042;SDS011;5574;48.786;10.120;2022-08-04T06:02:16;3.30;;;2.70;;
11042;SDS011;5574;48.786;10.120;2022-08-04T06:04:45;9.32;;;3.58;;
11042;SDS011;5574;48.786;10.120;2022-08-04T06:07:14;9.38;;;3.17;;
11042;SDS011;5574;48.786;10.120;2022-08-04T06:09:42;6.57;;;3.00;;
11042;SDS011;5574;48.786;10.120;2022-08-04T06:12:10;8.25;;;2.80;;
11042;SDS011;5574;48.786;10.120;2022-08-04T06:14:40;7.63;;;2.80;;
11042;SDS011;5574;48.786;10.120;2022-08-04T06:17:10;8.98;;;3.65;;
11042;SDS011;5574;48.786;10.120;2022-08-04T06:19:40;10.63;;;3.50;;
11042;SDS011;5574;48.786;10.120;2022-08-04T06:22:11;5.93;;;2.67;;
11042;SDS011;5574;48.786;10.120;2022-08-04T06:24:39;4.97;;;3.10;;
11042;SDS011;5574;48.786;10.120;2022-08-04T06:27:07;5.80;;;3.00;;
11042;SDS011;5574;48.786;10.120;2022-08-04T06:29:34;8.05;;;3.67;;
11042;SDS011;5574;48.786;10.120;2022-08-04T06:32:05;5.68;;;2.95;;
11042;SDS011;5574;48.786;10.120;2022-08-04T06:34:49;5.22;;;2.80;;
11042;SDS011;5574;48.786;10.120;2022-08-04T06:37:19;7.90;;;3.45;;
11042;SDS011;5574;48.786;10.120;2022-08-04T06:39:47;10.02;;;3.28;;
11042;SDS011;5574;48.786;10.120;2022-08-04T06:42:16;7.55;;;3.40;;
11042;SDS011;5574;48.786;10.120;2022-08-04T06:44:44;6.72;;;3.00;;
11042;SDS011;5574;48.786;10.120;2022-08-04T06:47:14;9.52;;;2.88;;
11042;SDS011;5574;48.786;10.120;2022-08-04T06:49:43;6.90;;;2.80;;
11042;SDS011;5574;48.786;10.120;2022-08-04T06:52:11;4.97;;;2.60;;
11042;SDS011;5574;48.786;10.120;2022-08-04T06:54:42;4.85;;;3.03;;
11042;SDS011;5574;48.786;10.120;2022-08-04T06:57:10;7.50;;;2.78;;
11042;SDS011;5574;48.786;10.120;2022-08-04T06:59:39;4.05;;;2.65;;
11042;SDS011;5574;48.786;10.120;2022-08-04T07:02:08;4.97;;;2.70;;
11042;SDS011;5574;48.786;10.120;2022-08-04T07:04:40;3.28;;;2.70;;
11042;SDS011;5574;48.786;10.120;2022-08-04T07:07:07;6.88;;;3.20;;
11042;SDS011;5574;48.786;10.120;2022-08-04T07:09:35;4.32;;;2.40;;
11042;SDS011;5574;48.786;10.120;2022-08-04T07:12:03;6.78;;;2.72;;
11042;SDS011;5574;48.786;10.120;2022-08-04T07:14:31;4.57;;;2.60;;
11042;SDS011;5574;48.786;10.120;2022-08-04T07:17:00;4.55;;;2.80;;
11042;SDS011;5574;48.786;10.120;2022-08-04T07:19:28;5.72;;;2.55;;
11042;SDS011;5574;48.786;10.120;2022-08-04T07:21:56;4.30;;;2.67;;
11042;SDS011;5574;48.786;10.120;2022-08-04T07:24:27;3.78;;;2.30;;
11042;SDS011;5574;48.786;10.120;2022-08-04T07:26:54;5.03;;;2.88;;
11042;SDS011;5574;48.786;10.120;2022-08-04T07:29:22;2.50;;;2.30;;
11042;SDS011;5574;48.786;10.120;2022-08-04T07:31:50;3.35;;;2.60;;
11042;SDS011;5574;48.786;10.120;2022-08-04T07:34:18;7.75;;;3.03;;
11042;SDS011;5574;48.786;10.120;2022-08-04T07:36:46;4.72;;;2.83;;
11042;SDS011;5574;48.786;10.120;2022-08-04T07:39:13;3.72;;;2.45;;
11042;SDS011;5574;48.786;10.120;2022-08-04T07:41:40;5.35;;;2.67;;
11042;SDS011;5574;48.786;10.120;2022-08-04T07:44:08;5.80;;;2.53;;
11042;SDS011;5574;48.786;10.120;2022-08-04T07:46:37;4.78;;;2.55;;
11042;SDS011;5574;48.786;10.120;2022-08-04T07:49:04;2.78;;;2.40;;
11042;SDS011;5574;48.786;10.120;2022-08-04T07:51:31;2.63;;;2.15;;
11042;SDS011;5574;48.786;10.120;2022-08-04T07:54:00;6.47;;;2.30;;
11042;SDS011;5574;48.786;10.120;2022-08-04T07:56:29;5.22;;;2.40;;
11042;SDS011;5574;48.786;10.120;2022-08-04T07:58:57;4.70;;;2.47;;
11042;SDS011;5574;48.786;10.120;2022-08-04T08:01:25;8.38;;;2.30;;
11042;SDS011;5574;48.786;10.120;2022-08-04T08:03:54;8.93;;;2.35;;
11042;SDS011;5574;48.786;10.120;2022-08-04T08:06:22;2.33;;;2.13;;
11042;SDS011;5574;48.786;10.120;2022-08-04T08:08:49;6.68;;;2.38;;
11042;SDS011;5574;48.786;10.120;2022-08-04T08:11:16;3.85;;;2.10;;
11042;SDS011;5574;48.786;10.120;2022-08-04T08:13:43;3.53;;;2.20;;
11042;SDS011;5574;48.786;10.120;2022-08-04T08:16:10;4.68;;;2.20;;
11042;SDS011;5574;48.786;10.120;2022-08-04T08:18:37;4.97;;;2.25;;
11042;SDS011;5574;48.786;10.120;2022-08-04T08:21:06;2.28;;;1.80;;
11042;SDS011;5574;48.786;10.120;2022-08-04T08:23:33;4.70;;;2.00;;
11042;SDS011;5574;48.786;10.120;2022-08-04T08:26:01;5.50;;;2.15;;
11042;SDS011;5574;48.786;10.120;2022-08-04T08:28:27;4.07;;;2.05;;
11042;SDS011;5574;48.786;10.120;2022-08-04T08:30:54;4.78;;;2.03;;
11042;SDS011;5574;48.786;10.120;2022-08-04T08:33:21;3.80;;;2.20;;
11042;SDS011;5574;48.786;10.120;2022-08-04T08:35:51;3.40;;;1.88;;
11042;SDS011;5574;48.786;10.120;2022-08-04T08:38:32;2.10;;;1.80;;
11042;SDS011;5574;48.786;10.120;2022-08-04T08:41:12;3.33;;;1.92;;
11042;SDS011;5574;48.786;10.120;2022-08-04T08:43:53;3.40;;;1.70;;
11042;SDS011;5574;48.786;10.120;2022-08-04T08:46:54;3.38;;;2.05;;
11042;SDS011;5574;48.786;10.120;2022-08-04T08:49:44;3.42;;;1.90;;
11042;SDS011;5574;48.786;10.120;2022-08-04T08:52:42;3.35;;;2.17;;
11042;SDS011;5574;48.786;10.120;2022-08-04T08:55:28;1.83;;;1.73;;
11042;SDS011;5574;48.786;10.120;2022-08-04T08:58:21;4.35;;;1.70;;
11042;SDS011;5574;48.786;10.120;2022-08-04T09:00:58;3.10;;;2.08;;
11042;SDS011;5574;48.786;10.120;2022-08-04T09:03:44;4.60;;;2.42;;
11042;SDS011;5574;48.786;10.120;2022-08-04T09:06:31;4.95;;;1.92;;
11042;SDS011;5574;48.786;10.120;2022-08-04T09:09:11;4.88;;;2.05;;
11042;SDS011;5574;48.786;10.120;2022-08-04T09:11:57;4.68;;;2.00;;
11042;SDS011;5574;48.786;10.120;2022-08-04T09:14:33;4.70;;;1.80;;
11042;SDS011;5574;48.786;10.120;2022-08-04T09:17:05;4.03;;;1.85;;
11042;SDS011;5574;48.786;10.120;2022-08-04T09:19:41;5.72;;;1.92;;
11042;SDS011;5574;48.786;10.120;2022-08-04T09:22:15;3.83;;;1.80;;
11042;SDS011;5574;48.786;10.120;2022-08-04T09:24:48;2.72;;;1.85;;
11042;SDS011;5574;48.786;10.120;2022-08-04T09:27:23;3.58;;;2.40;;
11042;SDS011;5574;48.786;10.120;2022-08-04T09:29:56;6.25;;;1.92;;
11042;SDS011;5574;48.786;10.120;2022-08-04T09:32:30;3.03;;;1.50;;
11042;SDS011;5574;48.786;10.120;2022-08-04T09:35:05;2.10;;;1.58;;
11042;SDS011;5574;48.786;10.120;2022-08-04T09:37:43;2.95;;;1.90;;
11042;SDS011;5574;48.786;10.120;2022-08-04T09:40:22;2.60;;;1.98;;
11042;SDS011;5574;48.786;10.120;2022-08-04T09:42:56;2.30;;;1.60;;
11042;SDS011;5574;48.786;10.120;2022-08-04T09:45:31;2.25;;;1.50;;
11042;SDS011;5574;48.786;10.120;2022-08-04T09:48:04;3.92;;;1.85;;
11042;SDS011;5574;48.786;10.120;2022-08-04T09:50:36;2.35;;;1.90;;
11042;SDS011;5574;48.786;10.120;2022-08-04T09:53:10;1.70;;;1.60;;
11042;SDS011;5574;48.786;10.120;2022-08-04T09:55:48;2.17;;;1.90;;
11042;SDS011;5574;48.786;10.120;2022-08-04T09:58:23;2.42;;;1.70;;
11042;SDS011;5574;48.786;10.120;2022-08-04T10:01:05;1.85;;;1.50;;
11042;SDS011;5574;48.786;10.120;2022-08-04T10:03:37;1.50;;;1.40;;
11042;SDS011;5574;48.786;10.120;2022-08-04T10:06:07;1.80;;;1.70;;
11042;SDS011;5574;48.786;10.120;2022-08-04T10:08:55;1.60;;;1.50;;
11042;SDS011;5574;48.786;10.120;2022-08-04T10:11:36;1.33;;;1.33;;
11042;SDS011;5574;48.786;10.120;2022-08-04T10:14:16;1.83;;;1.70;;
11042;SDS011;5574;48.786;10.120;2022-08-04T10:16:52;1.58;;;1.48;;
11042;SDS011;5574;48.786;10.120;2022-08-04T10:19:31;1.75;;;1.50;;
11042;SDS011;5574;48.786;10.120;2022-08-04T10:22:05;1.83;;;1.50;;
11042;SDS011;5574;48.786;10.120;2022-08-04T10:24:46;2.75;;;1.85;;
11042;SDS011;5574;48.786;10.120;2022-08-04T10:27:23;1.70;;;1.60;;
11042;SDS011;5574;48.786;10.120;2022-08-04T10:29:57;2.13;;;1.70;;
11042;SDS011;5574;48.786;10.120;2022-08-04T10:32:34;2.90;;;1.88;;
11042;SDS011;5574;48.786;10.120;2022-08-04T10:35:10;3.10;;;1.70;;
11042;SDS011;5574;48.786;10.120;2022-08-04T10:37:39;1.70;;;1.60;;
11042;SDS011;5574;48.786;10.120;2022-08-04T10:40:11;2.45;;;1.80;;
11042;SDS011;5574;48.786;10.120;2022-08-04T10:43:01;4.57;;;1.70;;
11042;SDS011;5574;48.786;10.120;2022-08-04T10:45:35;1.73;;;1.63;;
11042;SDS011;5574;48.786;10.120;2022-08-04T10:48:06;3.08;;;1.73;;
11042;SDS011;5574;48.786;10.120;2022-08-04T10:50:41;2.35;;;1.60;;
11042;SDS011;5574;48.786;10.120;2022-08-04T10:53:16;1.70;;;1.60;;
11042;SDS011;5574;48.786;10.120;2022-08-04T10:55:46;1.85;;;1.45;;
11042;SDS011;5574;48.786;10.120;2022-08-04T10:58:18;1.98;;;1.73;;
11042;SDS011;5574;48.786;10.120;2022-08-04T11:00:49;1.73;;;1.63;;
11042;SDS011;5574;48.786;10.120;2022-08-04T11:03:22;2.90;;;1.90;;
11042;SDS011;5574;48.786;10.120;2022-08-04T11:05:56;2.28;;;2.10;;
11042;SDS011;5574;48.786;10.120;2022-08-04T11:08:27;2.45;;;1.65;;
11042;SDS011;5574;48.786;10.120;2022-08-04T11:11:00;2.20;;;2.00;;
11042;SDS011;5574;48.786;10.120;2022-08-04T11:13:41;3.20;;;1.73;;
11042;SDS011;5574;48.786;10.120;2022-08-04T11:16:14;1.92;;;1.83;;
11042;SDS011;5574;48.786;10.120;2022-08-04T11:18:46;2.58;;;1.90;;
11042;SDS011;5574;48.786;10.120;2022-08-04T11:21:19;1.92;;;1.77;;
11042;SDS011;5574;48.786;10.120;2022-08-04T11:23:53;1.92;;;1.83;;
11042;SDS011;5574;48.786;10.120;2022-08-04T11:26:28;2.03;;;1.92;;
11042;SDS011;5574;48.786;10.120;2022-08-04T11:29:04;1.92;;;1.73;;
11042;SDS011;5574;48.786;10.120;2022-08-04T11:31:42;2.15;;;1.88;;
11042;SDS011;5574;48.786;10.120;2022-08-04T11:34:13;2.25;;;1.60;;
11042;SDS011;5574;48.786;10.120;2022-08-04T11:36:48;2.35;;;1.80;;
11042;SDS011;5574;48.786;10.120;2022-08-04T11:39:22;4.65;;;1.80;;
11042;SDS011;5574;48.786;10.120;2022-08-04T11:41:56;1.90;;;1.80;;
11042;SDS011;5574;48.786;10.120;2022-08-04T11:44:28;2.05;;;1.90;;
11042;SDS011;5574;48.786;10.120;2022-08-04T11:47:00;8.30;;;2.28;;
11042;SDS011;5574;48.786;10.120;2022-08-04T11:49:32;2.20;;;2.00;;
11042;SDS011;5574;48.786;10.120;2022-08-04T11:52:05;2.00;;;1.90;;
11042;SDS011;5574;48.786;10.120;2022-08-04T11:54:33;4.07;;;2.33;;
11042;SDS011;5574;48.786;10.120;2022-08-04T11:57:02;2.63;;;1.98;;
11042;SDS011;5574;48.786;10.120;2022-08-04T11:59:30;2.03;;;1.90;;
11042;SDS011;5574;48.786;10.120;2022-08-04T12:04:56;1.90;;;1.80;;
11042;SDS011;5574;48.786;10.120;2022-08-04T12:07:28;5.60;;;2.10;;
11042;SDS011;5574;48.786;10.120;2022-08-04T12:10:11;4.60;;;2.03;;
11042;SDS011;5574;48.786;10.120;2022-08-04T12:12:49;2.10;;;2.00;;
11042;SDS011;5574;48.786;10.120;2022-08-04T12:15:25;2.58;;;2.10;;
11042;SDS011;5574;48.786;10.120;2022-08-04T12:17:59;3.08;;;2.10;;
11042;SDS011;5574;48.786;10.120;2022-08-04T12:20:33;2.03;;;1.92;;
11042;SDS011;5574;48.786;10.120;2022-08-04T12:23:10;2.30;;;2.10;;
11042;SDS011;5574;48.786;10.120;2022-08-04T12:25:40;2.45;;;2.25;;
11042;SDS011;5574;48.786;10.120;2022-08-04T12:28:14;2.40;;;2.20;;
11042;SDS011;5574;48.786;10.120;2022-08-04T12:30:46;2.38;;;2.10;;
11042;SDS011;5574;48.786;10.120;2022-08-04T12:33:20;2.13;;;2.03;;
11042;SDS011;5574;48.786;10.120;2022-08-04T12:35:57;2.35;;;2.20;;
11042;SDS011;5574;48.786;10.120;2022-08-04T12:38:32;2.40;;;2.20;;
11042;SDS011;5574;48.786;10.120;2022-08-04T12:40:59;2.33;;;2.10;;
11042;SDS011;5574;48.786;10.120;2022-08-04T12:43:28;2.20;;;2.05;;
11042;SDS011;5574;48.786;10.120;2022-08-04T12:46:03;3.03;;;2.30;;
11042;SDS011;5574;48.786;10.120;2022-08-04T12:48:34;2.58;;;2.35;;
11042;SDS011;5574;48.786;10.120;2022-08-04T12:51:03;2.35;;;2.20;;
11042;SDS011;5574;48.786;10.120;2022-08-04T12:53:36;2.92;;;2.20;;
11042;SDS011;5574;48.786;10.120;2022-08-04T12:56:04;3.33;;;2.70;;
11042;SDS011;5574;48.786;10.120;2022-08-04T12:58:35;3.00;;;2.50;;
11042;SDS011;5574;48.786;10.120;2022-08-04T13:01:04;3.03;;;2.38;;
11042;SDS011;5574;48.786;10.120;2022-08-04T13:03:37;2.60;;;2.40;;
11042;SDS011;5574;48.786;10.120;2022-08-04T13:06:06;3.58;;;2.30;;
11042;SDS011;5574;48.786;10.120;2022-08-04T13:08:36;3.42;;;2.40;;
11042;SDS011;5574;48.786;10.120;2022-08-04T13:11:05;2.65;;;2.40;;
11042;SDS011;5574;48.786;10.120;2022-08-04T13:13:34;4.53;;;2.33;;
11042;SDS011;5574;48.786;10.120;2022-08-04T13:16:03;2.60;;;2.50;;
11042;SDS011;5574;48.786;10.120;2022-08-04T13:18:32;4.13;;;2.45;;
11042;SDS011;5574;48.786;10.120;2022-08-04T13:21:10;2.78;;;2.30;;
11042;SDS011;5574;48.786;10.120;2022-08-04T13:23:39;4.88;;;2.42;;
11042;SDS011;5574;48.786;10.120;2022-08-04T13:26:10;3.22;;;2.40;;
11042;SDS011;5574;48.786;10.120;2022-08-04T13:28:39;4.18;;;2.53;;
11042;SDS011;5574;48.786;10.120;2022-08-04T13:31:10;2.45;;;2.25;;
11042;SDS011;5574;48.786;10.120;2022-08-04T13:33:40;4.10;;;2.30;;
11042;SDS011;5574;48.786;10.120;2022-08-04T13:36:09;2.47;;;2.30;;
11042;SDS011;5574;48.786;10.120;2022-08-04T13:38:38;2.90;;;2.30;;
11042;SDS011;5574;48.786;10.120;2022-08-04T13:41:11;2.30;;;2.10;;
11042;SDS011;5574;48.786;10.120;2022-08-04T13:43:39;3.95;;;2.50;;
11042;SDS011;5574;48.786;10.120;2022-08-04T13:46:08;2.70;;;2.50;;
11042;SDS011;5574;48.786;10.120;2022-08-04T13:48:40;2.40;;;2.30;;
11042;SDS011;5574;48.786;10.120;2022-08-04T13:51:10;2.58;;;2.33;;
11042;SDS011;5574;48.786;10.120;2022-08-04T13:53:38;3.55;;;2.58;;
11042;SDS011;5574;48.786;10.120;2022-08-04T13:56:06;2.85;;;2.30;;
11042;SDS011;5574;48.786;10.120;2022-08-04T13:58:38;2.53;;;2.25;;
11042;SDS011;5574;48.786;10.120;2022-08-04T14:01:09;2.63;;;2.35;;
11042;SDS011;5574;48.786;10.120;2022-08-04T14:03:40;2.75;;;2.38;;
11042;SDS011;5574;48.786;10.120;2022-08-04T14:06:17;2.90;;;2.30;;
11042;SDS011;5574;48.786;10.120;2022-08-04T14:08:49;3.15;;;2.33;;
11042;SDS011;5574;48.786;10.120;2022-08-04T14:11:19;2.75;;;2.58;;
11042;SDS011;5574;48.786;10.120;2022-08-04T14:13:47;2.80;;;2.60;;
11042;SDS011;5574;48.786;10.120;2022-08-04T14:16:15;2.70;;;2.45;;
11042;SDS011;5574;48.786;10.120;2022-08-04T14:18:43;2.35;;;2.25;;
11042;SDS011;5574;48.786;10.120;2022-08-04T14:21:11;3.33;;;2.50;;
11042;SDS011;5574;48.786;10.120;2022-08-04T14:23:41;2.75;;;2.38;;
11042;SDS011;5574;48.786;10.120;2022-08-04T14:29:06;2.92;;;2.53;;
11042;SDS011;5574;48.786;10.120;2022-08-04T14:31:34;3.03;;;2.58;;
11042;SDS011;5574;48.786;10.120;2022-08-04T14:34:00;2.20;;;2.10;;
11042;SDS011;5574;48.786;10.120;2022-08-04T14:36:27;2.58;;;2.38;;
11042;SDS011;5574;48.786;10.120;2022-08-04T14:39:06;2.17;;;2.08;;
11042;SDS011;5574;48.786;10.120;2022-08-04T14:41:43;2.90;;;2.60;;
11042;SDS011;5574;48.786;10.120;2022-08-04T14:44:10;2.50;;;2.30;;
11042;SDS011;5574;48.786;10.120;2022-08-04T14:46:47;2.67;;;2.17;;
11042;SDS011;5574;48.786;10.120;2022-08-04T14:49:15;2.88;;;2.05;;
11042;SDS011;5574;48.786;10.120;2022-08-04T14:51:42;2.65;;;2.20;;
11042;SDS011;5574;48.786;10.120;2022-08-04T14:54:12;2.45;;;2.25;;
11042;SDS011;5574;48.786;10.120;2022-08-04T14:56:41;2.75;;;2.55;;
11042;SDS011;5574;48.786;10.120;2022-08-04T14:59:16;2.10;;;2.00;;
11042;SDS011;5574;48.786;10.120;2022-08-04T15:01:44;2.53;;;2.10;;
11042;SDS011;5574;48.786;10.120;2022-08-04T15:04:11;2.38;;;2.20;;
11042;SDS011;5574;48.786;10.120;2022-08-04T15:06:39;3.92;;;2.50;;
11042;SDS011;5574;48.786;10.120;2022-08-04T15:09:09;2.35;;;2.20;;
11042;SDS011;5574;48.786;10.120;2022-08-04T15:11:37;3.85;;;2.38;;
11042;SDS011;5574;48.786;10.120;2022-08-04T15:14:04;2.42;;;2.33;;
11042;SDS011;5574;48.786;10.120;2022-08-04T15:16:32;2.65;;;2.40;;
11042;SDS011;5574;48.786;10.120;2022-08-04T15:18:59;2.65;;;2.38;;
11042;SDS011;5574;48.786;10.120;2022-08-04T15:21:27;3.95;;;2.78;;
11042;SDS011;5574;48.786;10.120;2022-08-04T15:23:54;4.57;;;2.50;;
11042;SDS011;5574;48.786;10.120;2022-08-04T15:26:26;2.95;;;2.20;;
11042;SDS011;5574;48.786;10.120;2022-08-04T15:28:57;2.53;;;2.42;;
11042;SDS011;5574;48.786;10.120;2022-08-04T15:31:37;7.95;;;2.72;;
11042;SDS011;5574;48.786;10.120;2022-08-04T15:34:06;3.88;;;2.60;;
11042;SDS011;5574;48.786;10.120;2022-08-04T15:36:35;2.20;;;2.10;;
11042;SDS011;5574;48.786;10.120;2022-08-04T15:39:10;3.30;;;2.50;;
11042;SDS011;5574;48.786;10.120;2022-08-04T15:41:50;3.67;;;2.50;;
11042;SDS011;5574;48.786;10.120;2022-08-04T15:44:44;3.65;;;2.55;;
11042;SDS011;5574;48.786;10.120;2022-08-04T15:47:29;3.67;;;2.60;;
11042;SDS011;5574;48.786;10.120;2022-08-04T15:50:00;3.97;;;3.00;;
11042;SDS011;5574;48.786;10.120;2022-08-04T15:52:29;3.58;;;2.70;;
11042;SDS011;5574;48.786;10.120;2022-08-04T15:55:34;2.60;;;2.40;;
11042;SDS011;5574;48.786;10.120;2022-08-04T15:58:02;2.50;;;2.30;;
11042;SDS011;5574;48.786;10.120;2022-08-04T16:03:39;2.90;;;2.70;;
11042;SDS011;5574;48.786;10.120;2022-08-04T16:09:10;4.55;;;2.60;;
11042;SDS011;5574;48.786;10.120;2022-08-04T16:11:49;3.92;;;2.40;;